Time;durP1;ratioP1;P1;durP2;ratioP2;P2;SDS_P1;SDS_P2;PMS_P1;PMS_P2;Temp;Humidity;BMP_temperature;BMP_pressure;BME280_temperature;BME280_humidity;BME280_pressure;Samples;Min_cycle;Max_cycle;Signal;HPM_P1;HPM_P2
2023/03/29 00:01:20;;;;;;;5.75;3.08;;;;;;;;;;4970378;28;20078;-84
2023/03/29 00:03:46;;;;;;;6.10;3.63;;;;;;;;;;4953888;28;20501;-85
2023/03/29 00:06:20;;;;;;;4.30;3.08;;;;;;;;;;4970826;28;20051;-84
2023/03/29 00:08:49;;;;;;;5.18;2.92;;;;;;;;;;4968152;28;20046;-84
2023/03/29 00:11:16;;;;;;;5.95;3.53;;;;;;;;;;4954186;28;20169;-84
2023/03/29 00:13:42;;;;;;;4.32;2.88;;;;;;;;;;4966310;28;20085;-84
2023/03/29 00:16:08;;;;;;;5.10;2.90;;;;;;;;;;4971903;28;20058;-83
2023/03/29 00:18:34;;;;;;;6.38;3.75;;;;;;;;;;4965998;28;20489;-83
2023/03/29 00:21:01;;;;;;;5.53;3.00;;;;;;;;;;4963391;28;20050;-85
2023/03/29 00:23:26;;;;;;;4.35;3.25;;;;;;;;;;4959105;28;20085;-83
2023/03/29 00:25:53;;;;;;;5.63;3.40;;;;;;;;;;4967714;28;20822;-84
2023/03/29 00:28:19;;;;;;;5.97;3.33;;;;;;;;;;4969779;28;20504;-84
2023/03/29 00:30:45;;;;;;;5.82;3.03;;;;;;;;;;4954779;28;20061;-84
2023/03/29 00:33:11;;;;;;;7.70;2.75;;;;;;;;;;4966266;28;20084;-84
2023/03/29 00:35:38;;;;;;;5.93;3.33;;;;;;;;;;4972539;28;20042;-84
2023/03/29 00:38:05;;;;;;;7.13;3.22;;;;;;;;;;4966998;28;20050;-83
2023/03/29 00:40:31;;;;;;;5.07;2.88;;;;;;;;;;4955308;28;20104;-84
2023/03/29 00:42:57;;;;;;;8.57;3.70;;;;;;;;;;4963452;28;20039;-84
2023/03/29 00:45:26;;;;;;;7.43;3.05;;;5.80;99.90;;;;;;4962635;28;20121;-84
2023/03/29 00:48:01;;;;;;;5.35;2.95;;;6.00;99.90;;;;;;4976386;28;20088;-83
2023/03/29 00:50:48;;;;;;;5.32;2.95;;;;;;;;;;4958068;28;20153;-84
2023/03/29 00:53:17;;;;;;;4.28;3.45;;;;;;;;;;4966930;28;20181;-83
2023/03/29 00:55:48;;;;;;;6.72;3.13;;;5.80;99.90;;;;;;4955705;28;20034;-83
2023/03/29 00:58:17;;;;;;;5.82;3.17;;;;;;;;;;4971602;28;20501;-84
2023/03/29 01:01:00;;;;;;;5.68;2.75;;;5.90;99.90;;;;;;4964930;28;20093;-84
2023/03/29 01:03:29;;;;;;;7.50;3.30;;;;;;;;;;4967484;28;20061;-84
2023/03/29 01:05:57;;;;;;;5.78;3.35;;;;;;;;;;4969217;28;20448;-84
2023/03/29 01:08:26;;;;;;;6.20;3.17;;;;;;;;;;4947998;28;20049;-84
2023/03/29 01:11:10;;;;;;;5.18;3.17;;;6.00;99.90;;;;;;4966985;28;20098;-84
2023/03/29 01:13:48;;;;;;;3.92;2.90;;;;;;;;;;4983628;28;20045;-84
2023/03/29 01:16:19;;;;;;;5.65;3.42;;;;;;;;;;4961207;28;20050;-84
2023/03/29 01:18:45;;;;;;;6.97;3.40;;;;;;;;;;4940373;28;20058;-84
2023/03/29 01:21:22;;;;;;;4.78;3.17;;;;;;;;;;4968815;28;20058;-84
2023/03/29 01:24:05;;;;;;;6.18;3.53;;;;;;;;;;4970461;28;20039;-84
2023/03/29 01:26:50;;;;;;;5.97;3.47;;;;;;;;;;4970919;28;20485;-84
2023/03/29 01:29:20;;;;;;;9.37;3.50;;;;;;;;;;4970732;28;20046;-84
2023/03/29 01:31:50;;;;;;;7.15;3.25;;;;;;;;;;4966933;28;20361;-84
2023/03/29 01:34:29;;;;;;;7.20;3.35;;;;;;;;;;4953458;28;20417;-84
2023/03/29 01:37:03;;;;;;;4.47;3.33;;;;;;;;;;4958136;28;20137;-84
2023/03/29 01:39:29;;;;;;;7.72;3.30;;;;;;;;;;4962149;28;20054;-84
2023/03/29 01:41:58;;;;;;;6.35;3.72;;;;;;;;;;4947633;28;20065;-84
2023/03/29 01:44:29;;;;;;;11.70;4.78;;;;;;;;;;4967434;28;20054;-84
2023/03/29 01:47:04;;;;;;;5.85;3.63;;;;;;;;;;4956641;28;20576;-84
2023/03/29 01:49:33;;;;;;;8.02;3.65;;;;;;;;;;4954974;28;20050;-84
2023/03/29 01:52:05;;;;;;;7.22;4.13;;;5.80;99.90;;;;;;4952588;28;20121;-83
2023/03/29 01:54:43;;;;;;;5.68;3.30;;;;;;;;;;4963532;28;20057;-84
2023/03/29 01:57:10;;;;;;;6.72;4.35;;;;;;;;;;4965851;28;20050;-84
2023/03/29 01:59:38;;;;;;;6.22;4.20;;;;;;;;;;4966342;28;20160;-83
2023/03/29 02:02:05;;;;;;;8.65;3.95;;;;;;;;;;4967101;28;20501;-84
2023/03/29 02:04:38;;;;;;;7.57;4.05;;;6.20;99.90;;;;;;4958858;28;20054;-83
2023/03/29 02:07:06;;;;;;;6.40;4.10;;;;;;;;;;4969753;28;20046;-83
2023/03/29 02:09:33;;;;;;;7.85;4.00;;;;;;;;;;4965259;28;20506;-84
2023/03/29 02:12:00;;;;;;;7.30;4.22;;;;;;;;;;4950287;28;20053;-84
2023/03/29 02:14:26;;;;;;;6.22;4.22;;;;;;;;;;4964722;28;20500;-85
2023/03/29 02:16:52;;;;;;;7.95;4.38;;;;;;;;;;4960331;28;20041;-84
2023/03/29 02:19:19;;;;;;;8.02;4.28;;;;;;;;;;4960522;28;20133;-84
2023/03/29 02:22:04;;;;;;;8.10;4.18;;;;;;;;;;4961617;28;20034;-83
2023/03/29 02:24:31;;;;;;;8.05;4.35;;;;;;;;;;4948599;28;20688;-83
2023/03/29 02:26:57;;;;;;;7.28;3.97;;;5.90;99.90;;;;;;4965325;28;20093;-84
2023/03/29 02:29:25;;;;;;;6.15;3.92;;;;;;;;;;4983333;28;20096;-84
2023/03/29 02:32:23;;;;;;;8.75;4.68;;;;;;;;;;4967125;28;20042;-84
2023/03/29 02:34:58;;;;;;;5.55;4.38;;;;;;;;;;4926287;28;20105;-84
2023/03/29 02:37:28;;;;;;;9.10;5.03;;;;;;;;;;4965362;28;20133;-84
2023/03/29 02:39:55;;;;;;;6.97;4.22;;;;;;;;;;4967251;28;20057;-84
2023/03/29 02:42:21;;;;;;;10.27;4.68;;;;;;;;;;4963396;28;20042;-84
2023/03/29 02:44:49;;;;;;;11.57;4.85;;;;;;;;;;4963679;28;20543;-84
2023/03/29 02:47:19;;;;;;;8.20;3.92;;;;;;;;;;4964799;28;20061;-84
2023/03/29 02:49:45;;;;;;;11.70;5.40;;;;;;;;;;4966947;28;20053;-84
2023/03/29 02:52:16;;;;;;;9.40;4.82;;;;;;;;;;4964626;28;20046;-84
2023/03/29 02:54:44;;;;;;;7.97;4.38;;;5.90;99.90;;;;;;4953339;28;20046;-83
2023/03/29 02:57:11;;;;;;;9.07;4.68;;;;;;;;;;4966284;28;20133;-83
2023/03/29 02:59:42;;;;;;;10.32;4.60;;;5.90;99.90;;;;;;4969065;28;20512;-84
2023/03/29 03:02:08;;;;;;;5.72;4.35;;;;;;;;;;4970951;28;20069;-84
2023/03/29 03:04:34;;;;;;;6.20;4.25;;;;;;;;;;4969898;28;20145;-84
2023/03/29 03:07:01;;;;;;;13.10;4.68;;;;;;;;;;4970181;28;20042;-84
2023/03/29 03:09:27;;;;;;;10.40;5.57;;;;;;;;;;4972785;28;20057;-84
2023/03/29 03:11:53;;;;;;;8.02;4.97;;;;;;;;;;4954302;28;20042;-84
2023/03/29 03:14:21;;;;;;;7.78;4.72;;;;;;;;;;4956740;28;20043;-84
2023/03/29 03:16:47;;;;;;;9.60;5.25;;;;;;;;;;4964001;28;20117;-84
2023/03/29 03:19:13;;;;;;;7.03;4.50;;;;;;;;;;4970396;28;20068;-84
2023/03/29 03:21:39;;;;;;;8.13;4.68;;;;;;;;;;4959266;28;20049;-84
2023/03/29 03:24:06;;;;;;;7.30;4.40;;;;;;;;;;4964089;28;20042;-84
2023/03/29 03:26:32;;;;;;;6.03;4.10;;;;;;;;;;4972265;28;20065;-84
2023/03/29 03:28:59;;;;;;;6.82;4.32;;;;;;;;;;4971842;28;20054;-83
2023/03/29 03:31:27;;;;;;;8.95;5.60;;;;;;;;;;4964224;28;20086;-84
2023/03/29 03:33:53;;;;;;;7.20;4.78;;;;;;;;;;4968154;28;20409;-84
2023/03/29 03:36:24;;;;;;;8.73;4.47;;;;;;;;;;4970407;28;20842;-84
2023/03/29 03:38:50;;;;;;;10.98;5.35;;;;;;;;;;4968799;28;20776;-84
2023/03/29 03:41:17;;;;;;;8.10;4.60;;;;;;;;;;4953741;28;20042;-84
2023/03/29 03:43:47;;;;;;;6.88;4.68;;;;;;;;;;4962709;28;20050;-84
2023/03/29 03:46:13;;;;;;;9.70;5.20;;;;;;;;;;4965703;28;20070;-85
2023/03/29 03:48:39;;;;;;;7.30;4.40;;;;;;;;;;4960484;28;20050;-83
2023/03/29 03:51:06;;;;;;;10.05;4.53;;;;;;;;;;4955280;28;20056;-84
2023/03/29 03:53:32;;;;;;;9.25;4.97;;;;;;;;;;4944217;28;20053;-84
2023/03/29 03:56:01;;;;;;;6.10;3.78;;;;;;;;;;4972032;28;20042;-83
2023/03/29 03:58:27;;;;;;;8.90;4.63;;;;;;;;;;4971307;28;20495;-84
2023/03/29 04:00:53;;;;;;;7.35;4.95;;;;;;;;;;4946146;28;20034;-84
2023/03/29 04:03:20;;;;;;;7.43;4.43;;;;;;;;;;4955658;28;20044;-84
2023/03/29 04:05:46;;;;;;;11.10;4.97;;;;;;;;;;4966286;28;20113;-84
2023/03/29 04:08:13;;;;;;;8.52;5.07;;;;;;;;;;4969426;28;20053;-84
2023/03/29 04:10:39;;;;;;;7.97;4.97;;;;;;;;;;4965701;28;20189;-84
2023/03/29 04:13:05;;;;;;;10.18;4.53;;;;;;;;;;4955512;28;20066;-83
2023/03/29 04:15:32;;;;;;;8.77;4.72;;;;;;;;;;4968044;28;20045;-84
2023/03/29 04:17:59;;;;;;;8.23;4.60;;;;;;;;;;4971224;28;20051;-84
2023/03/29 04:20:25;;;;;;;7.95;5.25;;;;;;;;;;4970506;28;20588;-84
2023/03/29 04:22:51;;;;;;;8.60;4.70;;;;;;;;;;4971019;28;20515;-84
2023/03/29 04:25:18;;;;;;;9.60;5.00;;;;;;;;;;4958547;28;20049;-84
2023/03/29 04:27:44;;;;;;;7.45;4.38;;;;;;;;;;4970791;28;20038;-84
2023/03/29 04:30:11;;;;;;;7.07;5.15;;;;;;;;;;4967831;28;20084;-84
2023/03/29 04:32:37;;;;;;;9.95;4.72;;;;;;;;;;4969086;28;20508;-83
2023/03/29 04:35:04;;;;;;;7.72;4.80;;;;;;;;;;4965813;28;20500;-84
2023/03/29 04:37:33;;;;;;;7.32;5.43;;;;;;;;;;4954317;28;20043;-84
2023/03/29 04:39:59;;;;;;;10.32;4.97;;;;;;;;;;4954995;28;20073;-84
2023/03/29 04:42:26;;;;;;;8.18;4.97;;;;;;;;;;4969367;28;20073;-84
2023/03/29 04:44:52;;;;;;;9.93;5.70;;;;;;;;;;4954960;28;20514;-84
2023/03/29 04:47:18;;;;;;;8.65;4.30;;;;;;;;;;4966243;28;20066;-84
2023/03/29 04:49:44;;;;;;;8.18;5.20;;;;;;;;;;4954212;28;20889;-84
2023/03/29 04:52:10;;;;;;;8.38;4.93;;;;;;;;;;4968618;28;20050;-84
2023/03/29 04:54:37;;;;;;;11.73;5.20;;;;;;;;;;4961913;28;20054;-84
2023/03/29 04:57:07;;;;;;;8.13;5.20;;;;;;;;;;4961209;28;20054;-84
2023/03/29 04:59:33;;;;;;;11.15;5.90;;;;;;;;;;4960944;28;20042;-83
2023/03/29 05:02:01;;;;;;;10.70;5.90;;;;;;;;;;4964866;28;20050;-84
2023/03/29 05:04:27;;;;;;;11.70;5.28;;;;;;;;;;4961616;28;20046;-84
2023/03/29 05:06:54;;;;;;;13.27;6.65;;;;;;;;;;4970294;28;20050;-83
2023/03/29 05:09:20;;;;;;;9.85;5.28;;;;;;;;;;4960380;28;20049;-84
2023/03/29 05:11:46;;;;;;;9.75;6.43;;;;;;;;;;4953182;28;20093;-83
2023/03/29 05:14:12;;;;;;;9.18;5.38;;;;;;;;;;4943842;28;20065;-84
2023/03/29 05:16:40;;;;;;;11.27;5.50;;;;;;;;;;4967801;28;20050;-84
2023/03/29 05:19:07;;;;;;;13.02;6.38;;;;;;;;;;4954270;28;20764;-84
2023/03/29 05:21:34;;;;;;;16.20;7.25;;;;;;;;;;4970017;28;20042;-84
2023/03/29 05:24:00;;;;;;;10.95;6.63;;;;;;;;;;4968696;28;20129;-84
2023/03/29 05:26:26;;;;;;;9.38;7.22;;;;;;;;;;4969779;28;20046;-84
2023/03/29 05:28:52;;;;;;;13.10;6.57;;;;;;;;;;4966528;28;20157;-84
2023/03/29 05:31:18;;;;;;;12.65;6.75;;;;;;;;;;4947454;28;20680;-84
2023/03/29 05:33:47;;;;;;;10.68;6.78;;;;;;;;;;4962231;28;20519;-84
2023/03/29 05:36:14;;;;;;;12.95;6.40;;;;;;;;;;4949933;28;20052;-84
2023/03/29 05:38:41;;;;;;;10.27;6.35;;;;;;;;;;4965457;28;20100;-84
2023/03/29 05:41:07;;;;;;;13.98;6.78;;;;;;;;;;4968693;28;20080;-84
2023/03/29 05:43:33;;;;;;;10.13;7.43;;;;;;;;;;4969806;28;20440;-83
2023/03/29 05:46:00;;;;;;;12.00;7.28;;;;;;;;;;4967909;28;20057;-84
2023/03/29 05:48:26;;;;;;;11.82;6.88;;;;;;;;;;4964161;28;20081;-84
2023/03/29 05:50:53;;;;;;;10.10;6.95;;;;;;;;;;4952063;28;20456;-85
2023/03/29 05:53:20;;;;;;;11.90;7.00;;;;;;;;;;4966905;28;20042;-84
2023/03/29 05:55:46;;;;;;;15.15;7.07;;;;;;;;;;4967612;28;20035;-84
2023/03/29 05:58:13;;;;;;;11.02;7.20;;;;;;;;;;4964791;28;20043;-83
2023/03/29 06:00:39;;;;;;;11.52;6.97;;;;;;;;;;4964762;28;20046;-84
2023/03/29 06:03:06;;;;;;;10.18;7.47;;;;;;;;;;4959317;28;20121;-84
2023/03/29 06:05:33;;;;;;;14.63;7.32;;;;;;;;;;4960628;28;20204;-83
2023/03/29 06:07:59;;;;;;;12.00;7.65;;;;;;;;;;4968133;28;20042;-84
2023/03/29 06:10:25;;;;;;;11.45;7.30;;;;;;;;;;4967656;28;20042;-84
2023/03/29 06:12:51;;;;;;;12.27;7.45;;;;;;;;;;4966454;28;20115;-84
2023/03/29 06:15:18;;;;;;;11.32;7.28;;;;;;;;;;4962575;28;20101;-85
2023/03/29 06:17:44;;;;;;;11.02;6.82;;;;;;;;;;4964903;28;20038;-85
2023/03/29 06:20:11;;;;;;;12.45;7.45;;;;;;;;;;4960950;28;20051;-85
2023/03/29 06:22:37;;;;;;;10.57;7.13;;;6.30;99.90;;;;;;4966721;28;20046;-86
2023/03/29 06:25:11;;;;;;;9.70;6.93;;;;;;;;;;4981686;28;20042;-85
2023/03/29 06:27:37;;;;;;;11.73;6.57;;;;;;;;;;4954348;28;20157;-85
2023/03/29 06:30:04;;;;;;;13.60;7.07;;;;;;;;;;4968014;28;20046;-84
2023/03/29 06:32:31;;;;;;;12.68;7.32;;;;;;;;;;4960947;28;20090;-85
2023/03/29 06:34:57;;;;;;;11.30;6.85;;;;;;;;;;4962558;28;20101;-85
2023/03/29 06:37:22;;;;;;;11.50;6.60;;;;;;;;;;4970939;28;20050;-85
2023/03/29 06:39:52;;;;;;;14.93;8.82;;;;;;;;;;4950998;28;20039;-84
2023/03/29 06:42:22;;;;;;;10.90;6.85;;;;;;;;;;4971521;28;20084;-84
2023/03/29 06:44:48;;;;;;;13.75;6.80;;;;;;;;;;4957938;28;20042;-84
2023/03/29 06:50:49;;;;;;;13.27;6.53;;;;;;;;;;4991752;28;20048;-83
2023/03/29 06:56:47;;;;;;;13.07;7.25;;;;;;;;;;4991013;28;20088;-84
2023/03/29 06:59:17;;;;;;;9.07;6.55;;;;;;;;;;4977199;28;20068;-84
2023/03/29 07:05:23;;;;;;;16.27;8.75;;;;;;;;;;4971024;28;20069;-85
2023/03/29 07:12:12;;;;;;;11.82;7.15;;;;;;;;;;4931655;29;20069;-84
2023/03/29 07:26:06;;;;;;;10.98;7.13;;;;;;;;;;4917753;29;20471;-85
2023/03/29 07:33:25;;;;;;;9.48;6.53;;;7.20;99.90;;;;;;4861736;29;20081;-85
2023/03/29 07:43:17;;;;;;;13.60;7.70;;;;;;;;;;4878511;29;20526;-85
2023/03/29 09:31:47;;;;;;;12.85;7.25;;;;;;;;;;5046667;23;20052;-64
2023/03/29 09:34:15;;;;;;;10.75;7.47;;;;;;;;;;5019824;28;20056;-65
2023/03/29 09:36:47;;;;;;;14.18;7.70;;;;;;;;;;5014741;28;20049;-64
2023/03/29 09:39:15;;;;;;;14.18;7.88;;;;;;;;;;5013016;28;20056;-64
2023/03/29 09:41:47;;;;;;;14.18;8.20;;;;;;;;;;5012730;28;20107;-65
2023/03/29 09:44:15;;;;;;;14.77;8.60;;;;;;;;;;5021568;28;20055;-65
2023/03/29 09:47:01;;;;;;;17.48;8.80;;;;;;;;;;5012396;28;20045;-64
2023/03/29 09:49:30;;;;;;;12.73;8.10;;;;;;;;;;5027781;28;20048;-64
2023/03/29 09:51:58;;;;;;;12.55;8.15;;;;;;;;;;5024693;28;20061;-64
2023/03/29 09:54:24;;;;;;;15.57;9.10;;;9.70;99.90;;;;;;5027375;28;20148;-65
2023/03/29 09:56:51;;;;;;;16.45;9.40;;;;;;;;;;5028501;28;20143;-64
2023/03/29 09:59:17;;;;;;;17.40;10.23;;;9.70;99.90;;;;;;5023006;28;20049;-64
2023/03/29 10:01:46;;;;;;;13.73;8.90;;;;;;;;;;5008536;28;20050;-64
2023/03/29 10:04:12;;;;;;;15.43;10.10;;;;;;;;;;5035336;28;20041;-64
2023/03/29 10:06:48;;;;;;;14.00;9.32;;;;;;;;;;5009365;28;20045;-64
2023/03/29 10:09:14;;;;;;;;;;;;;;;;;;5028236;28;20056;-64
2023/03/29 10:11:40;;;;;;;19.00;9.20;;;;;;;;;;5007570;28;20463;-64
2023/03/29 10:14:18;;;;;;;13.52;9.98;;;9.90;99.90;;;;;;5028241;28;20075;-64
2023/03/29 10:16:44;;;;;;;16.65;11.32;;;10.00;99.90;;;;;;5020540;28;20051;-64
2023/03/29 10:19:22;;;;;;;21.20;10.95;;;;;;;;;;5009013;28;20537;-66
2023/03/29 10:21:51;;;;;;;19.45;10.50;;;;;;;;;;5031024;28;20475;-65
2023/03/29 10:24:25;;;;;;;18.35;10.90;;;10.20;99.90;;;;;;5010112;28;20407;-65
2023/03/29 10:26:56;;;;;;;19.02;11.80;;;;;;;;;;5029878;28;20138;-64
2023/03/29 10:29:26;;;;;;;21.38;11.13;;;;;;;;;;5011785;28;20046;-65
2023/03/29 10:31:53;;;;;;;22.80;11.57;;;;;;;;;;5018325;28;20103;-65
2023/03/29 10:34:24;;;;;;;16.83;10.77;;;;;;;;;;5011715;28;20057;-65
2023/03/29 10:36:59;;;;;;;16.08;11.35;;;;;;;;;;5008209;28;20037;-65
2023/03/29 10:39:32;;;;;;;17.23;10.73;;;;;;;;;;5029863;28;20033;-64
2023/03/29 10:41:59;;;;;;;16.92;9.93;;;10.90;99.90;;;;;;5011055;28;20041;-63
2023/03/29 10:44:26;;;;;;;16.40;11.10;;;;;;;;;;5011098;28;20128;-63
2023/03/29 10:46:52;;;;;;;16.00;10.65;;;;;;;;;;5012408;28;20045;-63
2023/03/29 10:49:20;;;;;;;17.92;10.48;;;11.30;99.90;;;;;;5026232;28;20045;-64
2023/03/29 10:51:48;;;;;;;15.65;9.35;;;11.20;99.90;;;;;;5026431;28;20052;-64
2023/03/29 10:54:19;;;;;;;15.48;10.55;;;11.10;99.90;;;;;;5028283;28;20077;-65
2023/03/29 10:56:51;;;;;;;13.13;9.18;;;11.30;99.90;;;;;;5026110;28;20052;-65
2023/03/29 10:59:39;;;;;;;14.70;9.82;;;;;;;;;;5036782;28;20537;-68
2023/03/29 11:02:15;;;;;;;12.18;9.27;;;;;;;;;;5030900;28;20046;-71
2023/03/29 11:04:46;;;;;;;14.73;9.88;;;11.50;99.90;;;;;;5038966;28;20080;-71
2023/03/29 11:07:32;;;;;;;15.93;9.43;;;;;;;;;;5026896;28;20126;-71
2023/03/29 11:10:24;;;;;;;15.75;9.80;;;11.70;99.90;;;;;;5029579;28;20045;-71
2023/03/29 11:13:04;;;;;;;16.27;10.10;;;;;;;;;;5019075;28;20053;-71
2023/03/29 11:15:30;;;;;;;13.02;9.50;;;11.60;99.90;;;;;;5017988;28;20068;-70
2023/03/29 11:18:46;;;;;;;15.80;9.77;;;11.80;99.90;;;;;;5032978;28;20781;-71
2023/03/29 11:21:23;;;;;;;17.13;9.60;;;12.10;99.90;;;;;;4976498;28;20049;-71
2023/03/29 11:24:00;;;;;;;12.35;8.73;;;12.10;99.90;;;;;;5014803;28;20052;-71
2023/03/29 11:26:37;;;;;;;15.85;10.18;;;12.30;99.90;;;;;;5011559;28;20050;-71
2023/03/29 11:29:09;;;;;;;12.65;9.65;;;12.30;99.90;;;;;;5026481;28;20493;-71
2023/03/29 11:31:59;;;;;;;13.70;9.70;;;12.30;99.90;;;;;;5015466;28;20061;-71
2023/03/29 11:34:53;;;;;;;15.82;9.95;;;12.50;99.90;;;;;;5015039;28;20045;-68
2023/03/29 11:37:40;;;;;;;14.80;9.48;;;;;;;;;;5036437;28;20123;-68
2023/03/29 11:40:34;;;;;;;11.50;9.43;;;12.60;99.90;;;;;;5018311;28;20048;-67
2023/03/29 11:43:04;;;;;;;13.70;9.70;;;12.60;99.90;;;;;;5028475;28;20045;-67
2023/03/29 11:45:40;;;;;;;12.00;9.35;;;12.80;99.90;;;;;;5034386;28;20052;-67
2023/03/29 11:48:10;;;;;;;13.50;10.13;;;12.50;99.90;;;;;;5030606;28;20049;-67
2023/03/29 11:51:05;;;;;;;15.25;9.93;;;12.60;99.90;;;;;;5026849;28;20386;-67
2023/03/29 11:53:47;;;;;;;14.27;9.63;;;;;;;;;;5028190;28;20562;-67
2023/03/29 11:56:22;;;;;;;15.70;10.23;;;12.50;99.90;;;;;;5010852;28;20100;-67
2023/03/29 11:58:53;;;;;;;;;;;12.50;99.90;;;;;;5009157;28;20116;-67
2023/03/29 12:01:33;;;;;;;15.65;10.05;;;12.70;99.90;;;;;;5008532;28;19928;-68
2023/03/29 12:04:06;;;;;;;16.63;9.50;;;12.60;99.90;;;;;;5027322;28;20418;-67
2023/03/29 12:06:49;;;;;;;16.25;10.25;;;12.40;99.90;;;;;;5035243;28;20060;-67
2023/03/29 12:09:45;;;;;;;17.13;10.35;;;12.30;99.90;;;;;;5018054;28;20037;-67
2023/03/29 12:12:29;;;;;;;18.13;11.13;;;;;;;;;;5032231;28;20037;-67
2023/03/29 12:15:06;;;;;;;15.70;10.38;;;;;;;;;;5022154;28;20045;-67
2023/03/29 12:17:43;;;;;;;13.30;8.95;;;12.30;99.90;;;;;;5032717;28;20149;-67
2023/03/29 12:20:25;;;;;;;17.85;9.98;;;12.40;99.90;;;;;;5017679;28;20037;-67
2023/03/29 12:27:00;;;;;;;15.32;8.70;;;12.30;99.90;;;;;;5045431;28;20450;-67
2023/03/29 12:29:32;;;;;;;16.10;8.85;;;12.40;99.90;;;;;;5018404;28;20128;-67
2023/03/29 12:32:25;;;;;;;14.32;9.15;;;12.40;99.90;;;;;;5035232;28;20693;-67
2023/03/29 12:37:51;;;;;;;13.25;8.63;;;12.30;99.90;;;;;;5218846;23;20064;-67
2023/03/29 12:40:20;;;;;;;11.55;8.75;;;12.30;99.90;;;;;;5012117;28;20071;-67
2023/03/29 12:42:46;;;;;;;14.77;9.25;;;;;;;;;;5029905;28;20033;-67
2023/03/29 12:45:34;;;;;;;13.60;9.27;;;12.20;99.90;;;;;;5016254;28;20488;-68
2023/03/29 12:48:00;;;;;;;15.18;9.25;;;;;;;;;;5021978;28;20049;-67
2023/03/29 12:50:30;;;;;;;16.45;9.82;;;;;;;;;;5026936;28;20519;-67
2023/03/29 12:53:03;;;;;;;15.10;8.73;;;12.40;99.90;;;;;;5029742;28;20421;-67
2023/03/29 12:55:31;;;;;;;13.98;9.70;;;;;;;;;;5027896;28;20636;-67
2023/03/29 12:58:01;;;;;;;16.23;9.07;;;12.50;99.90;;;;;;5010275;28;20439;-67
2023/03/29 13:00:41;;;;;;;13.30;9.10;;;12.80;99.90;;;;;;5026103;28;20120;-67
2023/03/29 13:03:34;;;;;;;11.50;8.75;;;12.60;99.90;;;;;;5029061;28;20033;-67
2023/03/29 13:06:04;;;;;;;15.88;10.23;;;;;;;;;;5033714;28;20491;-67
2023/03/29 13:08:34;;;;;;;14.30;9.07;;;12.70;99.90;;;;;;5019382;28;20045;-67
2023/03/29 13:11:00;;;;;;;17.45;10.52;;;;;;;;;;5015326;28;20044;-67
2023/03/29 13:13:37;;;;;;;16.33;9.95;;;12.60;99.90;;;;;;5035685;28;20503;-68
2023/03/29 13:16:19;;;;;;;15.35;9.38;;;12.80;99.90;;;;;;5033390;28;20061;-67
2023/03/29 13:19:01;;;;;;;15.13;10.20;;;12.90;99.90;;;;;;5019328;28;20514;-68
2023/03/29 13:22:08;;;;;;;15.88;10.52;;;13.20;99.90;;;;;;5027310;28;20037;-67
2023/03/29 13:25:15;;;;;;;15.82;9.63;;;13.00;99.90;;;;;;4982826;28;20053;-68
2023/03/29 13:27:44;;;;;;;14.50;9.70;;;12.90;99.90;;;;;;4976451;28;20591;-67
2023/03/29 13:30:22;;;;;;;14.07;9.52;;;13.00;99.90;;;;;;4975010;28;20054;-67
2023/03/29 13:33:09;;;;;;;16.27;9.93;;;13.20;99.90;;;;;;5003534;28;20814;-67
2023/03/29 13:36:07;;;;;;;16.70;8.77;;;13.40;99.90;;;;;;5009543;28;20403;-67
2023/03/29 13:38:50;;;;;;;17.20;9.60;;;13.70;99.90;;;;;;5010710;28;20060;-67
2023/03/29 13:41:30;;;;;;;11.90;8.77;;;13.70;99.90;;;;;;5029877;28;20057;-68
2023/03/29 13:43:57;;;;;;;17.63;9.45;;;;;;;;;;5026422;28;20574;-67
2023/03/29 13:46:36;;;;;;;14.88;9.60;;;14.00;99.90;;;;;;5448035;23;20057;-84
2023/03/29 13:49:21;;;;;;;18.38;8.25;;;13.90;99.90;;;;;;5022580;28;20053;-83
2023/03/29 13:51:53;;;;;;;13.63;8.98;;;14.20;99.90;;;;;;4990176;28;20121;-84
2023/03/29 13:55:00;;;;;;;13.25;7.82;;;14.40;99.90;;;;;;5008877;28;20522;-83
2023/03/29 13:57:42;;;;;;;14.40;7.88;;;14.40;99.90;;;;;;5001362;28;20186;-83
2023/03/29 14:00:18;;;;;;;11.98;8.52;;;14.40;99.90;;;;;;4999111;28;20048;-83
2023/03/29 14:02:52;;;;;;;12.48;7.82;;;14.40;99.90;;;;;;5008659;28;20146;-83
2023/03/29 14:05:23;;;;;;;14.90;9.05;;;14.40;99.90;;;;;;4996646;28;20500;-84
2023/03/29 14:07:51;;;;;;;11.43;7.57;;;14.10;99.90;;;;;;5006082;28;20400;-83
2023/03/29 14:10:26;;;;;;;11.73;8.93;;;14.10;99.90;;;;;;5005000;28;20042;-83
2023/03/29 14:12:52;;;;;;;14.77;8.80;;;;;;;;;;4990823;28;20057;-83
2023/03/29 14:15:33;;;;;;;15.15;9.57;;;14.00;99.90;;;;;;4992093;28;20045;-83
2023/03/29 14:18:00;;;;;;;14.95;9.25;;;14.30;99.90;;;;;;4999467;28;20434;-84
2023/03/29 14:20:26;;;;;;;12.50;9.77;;;;;;;;;;4997610;28;20037;-83
2023/03/29 14:22:52;;;;;;;9.75;7.40;;;;;;;;;;4998464;28;20038;-84
2023/03/29 14:25:21;;;;;;;11.02;8.10;;;14.10;99.90;;;;;;5003374;28;20109;-83
2023/03/29 14:27:48;;;;;;;10.90;8.05;;;;;;;;;;5000435;28;20115;-83
2023/03/29 14:30:26;;;;;;;10.35;8.05;;;14.10;99.90;;;;;;5000564;28;20049;-83
2023/03/29 14:32:52;;;;;;;9.18;7.53;;;;;;;;;;4998023;28;20045;-83
2023/03/29 14:35:19;;;;;;;14.98;8.73;;;14.00;99.90;;;;;;5005005;28;20104;-83
2023/03/29 14:37:46;;;;;;;12.48;9.07;;;14.10;99.90;;;;;;4999461;28;20432;-84
2023/03/29 14:40:18;;;;;;;9.85;7.95;;;13.90;99.90;;;;;;5007278;28;20741;-83
2023/03/29 14:42:46;;;;;;;13.63;8.63;;;13.90;99.90;;;;;;4994045;28;20046;-83
2023/03/29 14:45:15;;;;;;;11.82;7.55;;;13.60;99.90;;;;;;5007433;28;20049;-83
2023/03/29 14:47:41;;;;;;;10.52;7.78;;;;;;;;;;4997583;28;20064;-83
2023/03/29 14:50:21;;;;;;;11.18;9.13;;;13.70;99.90;;;;;;5005065;28;20528;-83
2023/03/29 14:52:49;;;;;;;13.60;8.07;;;13.70;99.90;;;;;;5009348;28;20053;-83
2023/03/29 14:55:17;;;;;;;10.57;7.20;;;13.80;99.90;;;;;;5008122;28;20060;-83
2023/03/29 14:57:43;;;;;;;8.75;7.88;;;;;;;;;;5008716;28;20499;-83
2023/03/29 15:00:27;;;;;;;9.40;7.28;;;13.70;99.90;;;;;;5005824;28;20041;-83
2023/03/29 15:02:58;;;;;;;13.32;9.45;;;13.60;99.90;;;;;;5009655;28;20499;-83
2023/03/29 15:05:47;;;;;;;9.27;7.75;;;13.70;99.90;;;;;;5010753;28;20072;-83
2023/03/29 15:08:16;;;;;;;14.82;9.25;;;13.70;99.90;;;;;;4988615;28;20057;-84
2023/03/29 15:10:42;;;;;;;12.95;9.45;;;;;;;;;;4992516;28;20503;-83
2023/03/29 15:13:17;;;;;;;12.77;8.52;;;13.60;99.90;;;;;;5006991;28;20065;-83
2023/03/29 15:15:43;;;;;;;12.52;8.25;;;;;;;;;;5006399;28;20040;-83
2023/03/29 15:18:14;;;;;;;9.98;7.65;;;13.70;99.90;;;;;;4993829;28;20510;-83
2023/03/29 15:20:41;;;;;;;9.88;7.93;;;;;;;;;;5010242;28;20037;-83
2023/03/29 15:23:07;;;;;;;12.85;8.13;;;;;;;;;;5007649;28;20494;-83
2023/03/29 15:26:06;;;;;;;11.07;8.13;;;13.50;99.90;;;;;;5006313;28;20805;-83
2023/03/29 15:28:34;;;;;;;10.35;7.68;;;13.40;99.90;;;;;;4998795;28;20061;-83
2023/03/29 15:31:10;;;;;;;9.82;7.53;;;;;;;;;;5009765;28;20438;-83
2023/03/29 15:33:37;;;;;;;12.15;8.45;;;15.10;99.90;;;;;;5005201;28;20052;-83
2023/03/29 15:36:04;;;;;;;10.13;8.50;;;;;;;;;;4999184;28;20108;-83
2023/03/29 15:38:31;;;;;;;10.27;7.85;;;;;;;;;;5004305;28;20556;-83
2023/03/29 15:40:57;;;;;;;9.73;8.15;;;;;;;;;;5005531;28;20052;-83
2023/03/29 15:43:23;;;;;;;11.85;8.63;;;;;;;;;;5001363;28;20042;-83
2023/03/29 15:45:50;;;;;;;11.90;8.52;;;;;;;;;;5000326;28;20200;-83
2023/03/29 15:48:21;;;;;;;12.23;9.45;;;;;;;;;;5008152;28;20522;-83
2023/03/29 15:50:47;;;;;;;10.80;8.90;;;;;;;;;;5009073;28;20034;-83
2023/03/29 15:53:15;;;;;;;15.30;9.57;;;;;;;;;;5005844;28;20056;-83
2023/03/29 15:55:44;;;;;;;15.43;10.52;;;12.80;99.90;;;;;;5000444;28;20073;-83
2023/03/29 15:58:24;;;;;;;11.85;9.75;;;12.80;99.90;;;;;;5003278;28;20042;-83
2023/03/29 16:00:58;;;;;;;13.38;10.38;;;13.00;99.90;;;;;;5003165;28;20072;-83
2023/03/29 16:03:26;;;;;;;14.02;10.63;;;;;;;;;;5005793;28;20057;-83
2023/03/29 16:05:55;;;;;;;16.25;11.77;;;12.80;99.90;;;;;;5002872;28;20041;-83
2023/03/29 16:08:21;;;;;;;16.60;11.70;;;;;;;;;;4997468;28;20037;-83
2023/03/29 16:10:48;;;;;;;21.20;12.15;;;;;;;;;;5009617;28;20041;-83
2023/03/29 16:13:14;;;;;;;18.15;12.50;;;;;;;;;;4998136;28;20050;-83
2023/03/29 16:15:41;;;;;;;17.77;12.57;;;12.70;99.90;;;;;;4993040;28;20095;-83
2023/03/29 16:18:07;;;;;;;19.98;12.60;;;;;;;;;;4997241;28;20049;-84
2023/03/29 16:20:34;;;;;;;17.33;13.07;;;;;;;;;;5001999;28;20072;-83
2023/03/29 16:23:00;;;;;;;21.63;13.90;;;;;;;;;;5004708;28;20128;-84
2023/03/29 16:25:27;;;;;;;18.35;14.15;;;12.30;99.90;;;;;;5002784;28;20045;-84
2023/03/29 16:27:53;;;;;;;21.42;15.30;;;;;;;;;;5001550;28;20496;-83
2023/03/29 16:30:19;;;;;;;20.52;15.52;;;;;;;;;;5004357;28;20043;-83
2023/03/29 16:32:45;;;;;;;20.58;15.88;;;;;;;;;;4999054;28;20045;-83
2023/03/29 16:35:19;;;;;;;24.63;15.75;;;;;;;;;;5002067;28;20840;-83
2023/03/29 16:37:45;;;;;;;21.00;15.10;;;;;;;;;;4995474;28;21004;-83
2023/03/29 16:40:11;;;;;;;23.75;17.40;;;;;;;;;;5004273;28;20053;-83
2023/03/29 16:42:38;;;;;;;20.23;15.00;;;;;;;;;;5005338;28;20038;-83
2023/03/29 16:45:06;;;;;;;22.73;15.73;;;;;;;;;;5000908;28;20042;-84
2023/03/29 16:47:32;;;;;;;20.75;16.23;;;;;;;;;;4989282;28;20057;-84
2023/03/29 16:49:58;;;;;;;21.67;16.30;;;;;;;;;;5000368;28;20051;-84